sensor_id;sensor_type;location;lat;lon;timestamp;pressure;altitude;pressure_sealevel;temperature;humidity
62038;BME280;47991;42.974;12.082;2023-06-10T00:01:40;97546.54;;;17.69;89.36
62038;BME280;47991;42.974;12.082;2023-06-10T00:04:08;97546.84;;;17.73;89.11
62038;BME280;47991;42.974;12.082;2023-06-10T00:06:35;97545.91;;;17.74;89.28
62038;BME280;47991;42.974;12.082;2023-06-10T00:09:05;97544.18;;;17.73;89.08
62038;BME280;47991;42.974;12.082;2023-06-10T00:11:32;97542.11;;;17.69;89.25
62038;BME280;47991;42.974;12.082;2023-06-10T00:14:00;97539.89;;;17.67;89.34
62038;BME280;47991;42.974;12.082;2023-06-10T00:16:27;97532.55;;;17.67;89.27
62038;BME280;47991;42.974;12.082;2023-06-10T00:18:54;97530.34;;;17.68;89.40
62038;BME280;47991;42.974;12.082;2023-06-10T00:21:28;97530.98;;;17.69;89.51
62038;BME280;47991;42.974;12.082;2023-06-10T00:23:54;97527.63;;;17.69;90.79
62038;BME280;47991;42.974;12.082;2023-06-10T00:26:23;97527.36;;;17.64;90.46
62038;BME280;47991;42.974;12.082;2023-06-10T00:28:50;97530.40;;;17.67;90.34
62038;BME280;47991;42.974;12.082;2023-06-10T00:31:16;97526.50;;;17.69;90.14
62038;BME280;47991;42.974;12.082;2023-06-10T00:33:44;97521.92;;;17.74;90.14
62038;BME280;47991;42.974;12.082;2023-06-10T00:36:10;97521.35;;;17.75;89.92
62038;BME280;47991;42.974;12.082;2023-06-10T00:38:37;97521.31;;;17.73;89.80
62038;BME280;47991;42.974;12.082;2023-06-10T00:41:04;97518.71;;;17.68;90.04
62038;BME280;47991;42.974;12.082;2023-06-10T00:43:31;97520.86;;;17.65;90.31
62038;BME280;47991;42.974;12.082;2023-06-10T00:45:58;97522.73;;;17.67;89.93
62038;BME280;47991;42.974;12.082;2023-06-10T00:48:26;97521.64;;;17.67;89.72
62038;BME280;47991;42.974;12.082;2023-06-10T00:50:53;97516.05;;;17.68;89.93
62038;BME280;47991;42.974;12.082;2023-06-10T00:53:22;97516.45;;;17.65;89.78
62038;BME280;47991;42.974;12.082;2023-06-10T00:55:49;97519.16;;;17.64;89.79
62038;BME280;47991;42.974;12.082;2023-06-10T00:58:16;97519.21;;;17.63;89.66
62038;BME280;47991;42.974;12.082;2023-06-10T01:00:43;97516.77;;;17.59;89.63
62038;BME280;47991;42.974;12.082;2023-06-10T01:03:12;97518.98;;;17.55;89.30
62038;BME280;47991;42.974;12.082;2023-06-10T01:05:39;97523.61;;;17.49;89.79
62038;BME280;47991;42.974;12.082;2023-06-10T01:08:35;97525.57;;;17.50;89.65
62038;BME280;47991;42.974;12.082;2023-06-10T01:11:08;97525.64;;;17.48;89.45
62038;BME280;47991;42.974;12.082;2023-06-10T01:13:41;97521.55;;;17.45;89.45
62038;BME280;47991;42.974;12.082;2023-06-10T01:16:09;97523.08;;;17.43;89.78
62038;BME280;47991;42.974;12.082;2023-06-10T01:18:36;97520.86;;;17.38;89.72
62038;BME280;47991;42.974;12.082;2023-06-10T01:21:05;97519.55;;;17.36;89.80
62038;BME280;47991;42.974;12.082;2023-06-10T01:23:34;97515.52;;;17.32;89.92
62038;BME280;47991;42.974;12.082;2023-06-10T01:26:09;97513.48;;;17.28;90.09
62038;BME280;47991;42.974;12.082;2023-06-10T01:31:54;97512.46;;;17.21;90.11
62038;BME280;47991;42.974;12.082;2023-06-10T01:34:23;97504.46;;;17.20;90.21
62038;BME280;47991;42.974;12.082;2023-06-10T01:36:52;97499.88;;;17.16;90.37
62038;BME280;47991;42.974;12.082;2023-06-10T01:39:23;97499.23;;;17.12;90.86
62038;BME280;47991;42.974;12.082;2023-06-10T01:41:52;97496.55;;;17.09;91.21
62038;BME280;47991;42.974;12.082;2023-06-10T01:44:21;97499.14;;;17.04;91.06
62038;BME280;47991;42.974;12.082;2023-06-10T01:46:48;97499.97;;;17.02;91.14
62038;BME280;47991;42.974;12.082;2023-06-10T01:49:15;97501.94;;;17.02;91.06
62038;BME280;47991;42.974;12.082;2023-06-10T01:51:42;97504.83;;;17.05;91.22
62038;BME280;47991;42.974;12.082;2023-06-10T01:54:09;97505.67;;;17.08;91.16
62038;BME280;47991;42.974;12.082;2023-06-10T01:56:36;97504.88;;;17.10;91.37
62038;BME280;47991;42.974;12.082;2023-06-10T01:59:03;97505.80;;;17.10;91.53
62038;BME280;47991;42.974;12.082;2023-06-10T02:01:31;97506.09;;;17.10;91.28
62038;BME280;47991;42.974;12.082;2023-06-10T02:03:58;97505.52;;;16.99;92.25
62038;BME280;47991;42.974;12.082;2023-06-10T02:06:24;97503.06;;;16.86;92.56
62038;BME280;47991;42.974;12.082;2023-06-10T02:08:51;97500.71;;;16.87;92.61
62038;BME280;47991;42.974;12.082;2023-06-10T02:11:18;97497.86;;;16.92;92.29
62038;BME280;47991;42.974;12.082;2023-06-10T02:13:45;97497.33;;;16.95;92.03
62038;BME280;47991;42.974;12.082;2023-06-10T02:16:12;97497.58;;;16.97;92.00
62038;BME280;47991;42.974;12.082;2023-06-10T02:18:41;97499.39;;;17.00;91.92
62038;BME280;47991;42.974;12.082;2023-06-10T02:21:10;97498.48;;;17.00;91.59
62038;BME280;47991;42.974;12.082;2023-06-10T02:23:37;97500.85;;;17.02;91.91
62038;BME280;47991;42.974;12.082;2023-06-10T02:26:04;97494.58;;;17.06;92.05
62038;BME280;47991;42.974;12.082;2023-06-10T02:28:31;97491.80;;;17.07;91.96
62038;BME280;47991;42.974;12.082;2023-06-10T02:30:58;97489.17;;;17.12;92.02
62038;BME280;47991;42.974;12.082;2023-06-10T02:33:26;97483.39;;;17.17;91.79
62038;BME280;47991;42.974;12.082;2023-06-10T02:35:55;97480.10;;;17.15;92.00
62038;BME280;47991;42.974;12.082;2023-06-10T02:38:22;97475.22;;;17.16;92.07
62038;BME280;47991;42.974;12.082;2023-06-10T02:40:49;97472.17;;;17.16;91.75
62038;BME280;47991;42.974;12.082;2023-06-10T02:43:16;97469.61;;;17.14;91.36
62038;BME280;47991;42.974;12.082;2023-06-10T02:45:43;97469.58;;;17.09;91.63
62038;BME280;47991;42.974;12.082;2023-06-10T02:48:10;97468.72;;;17.05;92.04
62038;BME280;47991;42.974;12.082;2023-06-10T02:50:36;97466.14;;;17.04;92.12
62038;BME280;47991;42.974;12.082;2023-06-10T02:53:06;97465.80;;;17.03;92.16
62038;BME280;47991;42.974;12.082;2023-06-10T02:55:32;97467.70;;;17.04;92.14
62038;BME280;47991;42.974;12.082;2023-06-10T02:57:59;97464.39;;;17.09;92.07
62038;BME280;47991;42.974;12.082;2023-06-10T03:00:27;97462.02;;;17.13;92.19
62038;BME280;47991;42.974;12.082;2023-06-10T03:02:55;97460.27;;;17.18;92.09
62038;BME280;47991;42.974;12.082;2023-06-10T03:05:24;97462.72;;;17.19;92.01
62038;BME280;47991;42.974;12.082;2023-06-10T03:07:51;97469.05;;;17.17;92.37
62038;BME280;47991;42.974;12.082;2023-06-10T03:10:18;97471.02;;;17.21;92.59
62038;BME280;47991;42.974;12.082;2023-06-10T03:12:45;97475.58;;;17.22;92.71
62038;BME280;47991;42.974;12.082;2023-06-10T03:15:11;97476.63;;;17.19;93.06
62038;BME280;47991;42.974;12.082;2023-06-10T03:17:39;97470.10;;;17.15;93.03
62038;BME280;47991;42.974;12.082;2023-06-10T03:20:06;97465.64;;;17.03;92.65
62038;BME280;47991;42.974;12.082;2023-06-10T03:22:36;97462.88;;;16.98;92.88
62038;BME280;47991;42.974;12.082;2023-06-10T03:25:05;97459.70;;;16.98;93.00
62038;BME280;47991;42.974;12.082;2023-06-10T03:27:32;97459.64;;;16.96;92.59
62038;BME280;47991;42.974;12.082;2023-06-10T03:29:59;97456.56;;;16.93;93.00
62038;BME280;47991;42.974;12.082;2023-06-10T03:32:26;97455.39;;;16.92;92.88
62038;BME280;47991;42.974;12.082;2023-06-10T03:34:53;97455.02;;;16.92;92.79
62038;BME280;47991;42.974;12.082;2023-06-10T03:37:24;97456.90;;;16.90;93.17
62038;BME280;47991;42.974;12.082;2023-06-10T03:39:52;97462.21;;;16.91;92.85
62038;BME280;47991;42.974;12.082;2023-06-10T03:42:18;97458.06;;;16.92;92.73
62038;BME280;47991;42.974;12.082;2023-06-10T03:44:46;97463.70;;;16.90;92.89
62038;BME280;47991;42.974;12.082;2023-06-10T03:47:12;97463.87;;;16.87;92.94
62038;BME280;47991;42.974;12.082;2023-06-10T03:49:39;97469.13;;;16.92;93.29
62038;BME280;47991;42.974;12.082;2023-06-10T03:52:07;97469.52;;;17.01;93.00
62038;BME280;47991;42.974;12.082;2023-06-10T03:54:34;97472.14;;;17.08;92.99
62038;BME280;47991;42.974;12.082;2023-06-10T03:57:01;97473.45;;;17.13;92.65
62038;BME280;47991;42.974;12.082;2023-06-10T03:59:28;97469.22;;;17.15;92.80
62038;BME280;47991;42.974;12.082;2023-06-10T04:01:55;97467.41;;;17.15;92.96
62038;BME280;47991;42.974;12.082;2023-06-10T04:04:23;97470.41;;;17.22;93.00
62038;BME280;47991;42.974;12.082;2023-06-10T04:06:50;97469.73;;;17.27;92.67
62038;BME280;47991;42.974;12.082;2023-06-10T04:09:17;97466.96;;;17.29;92.64
62038;BME280;47991;42.974;12.082;2023-06-10T04:11:44;97467.99;;;17.23;92.53
62038;BME280;47991;42.974;12.082;2023-06-10T04:14:11;97465.34;;;17.17;92.62
62038;BME280;47991;42.974;12.082;2023-06-10T04:16:38;97462.39;;;17.12;92.46
62038;BME280;47991;42.974;12.082;2023-06-10T04:19:05;97457.08;;;17.09;92.61
62038;BME280;47991;42.974;12.082;2023-06-10T04:21:32;97459.41;;;17.05;92.56
62038;BME280;47991;42.974;12.082;2023-06-10T04:23:59;97460.16;;;17.02;92.87
62038;BME280;47991;42.974;12.082;2023-06-10T04:26:27;97459.17;;;17.00;93.02
62038;BME280;47991;42.974;12.082;2023-06-10T04:28:54;97457.95;;;17.03;93.20
62038;BME280;47991;42.974;12.082;2023-06-10T04:31:21;97460.30;;;17.06;92.95
62038;BME280;47991;42.974;12.082;2023-06-10T04:33:48;97457.28;;;17.08;92.91
62038;BME280;47991;42.974;12.082;2023-06-10T04:36:15;97454.35;;;17.10;93.01
62038;BME280;47991;42.974;12.082;2023-06-10T04:38:41;97454.43;;;17.11;92.87
62038;BME280;47991;42.974;12.082;2023-06-10T04:41:09;97453.03;;;17.14;93.11
62038;BME280;47991;42.974;12.082;2023-06-10T04:43:36;97452.67;;;17.14;93.02
62038;BME280;47991;42.974;12.082;2023-06-10T04:46:03;97455.39;;;17.16;93.42
62038;BME280;47991;42.974;12.082;2023-06-10T04:48:30;97451.23;;;17.26;93.59
62038;BME280;47991;42.974;12.082;2023-06-10T04:50:58;97448.13;;;17.30;93.70
62038;BME280;47991;42.974;12.082;2023-06-10T04:53:25;97450.64;;;17.32;94.20
62038;BME280;47991;42.974;12.082;2023-06-10T04:55:53;97447.90;;;17.34;94.32
62038;BME280;47991;42.974;12.082;2023-06-10T04:58:19;97444.77;;;17.32;94.60
62038;BME280;47991;42.974;12.082;2023-06-10T05:00:46;97445.92;;;17.37;94.18
62038;BME280;47991;42.974;12.082;2023-06-10T05:03:13;97446.82;;;17.43;94.18
62038;BME280;47991;42.974;12.082;2023-06-10T05:05:40;97443.48;;;17.50;94.32
62038;BME280;47991;42.974;12.082;2023-06-10T05:08:07;97440.38;;;17.52;94.39
62038;BME280;47991;42.974;12.082;2023-06-10T05:10:34;97434.02;;;17.44;94.81
62038;BME280;47991;42.974;12.082;2023-06-10T05:13:01;97429.02;;;17.45;94.49
62038;BME280;47991;42.974;12.082;2023-06-10T05:15:29;97429.91;;;17.53;94.54
62038;BME280;47991;42.974;12.082;2023-06-10T05:17:57;97420.85;;;17.64;94.33
62038;BME280;47991;42.974;12.082;2023-06-10T05:20:29;97421.01;;;17.70;94.48
62038;BME280;47991;42.974;12.082;2023-06-10T05:22:56;97417.67;;;17.80;94.20
62038;BME280;47991;42.974;12.082;2023-06-10T05:25:23;97415.86;;;17.90;93.82
62038;BME280;47991;42.974;12.082;2023-06-10T05:27:50;97411.66;;;17.94;93.91
62038;BME280;47991;42.974;12.082;2023-06-10T05:30:16;97406.95;;;18.00;93.88
62038;BME280;47991;42.974;12.082;2023-06-10T05:32:45;97406.83;;;18.13;93.63
62038;BME280;47991;42.974;12.082;2023-06-10T05:35:12;97405.64;;;18.26;93.23
62038;BME280;47991;42.974;12.082;2023-06-10T05:37:39;97410.35;;;18.39;93.46
62038;BME280;47991;42.974;12.082;2023-06-10T05:40:06;97416.54;;;18.57;93.47
62038;BME280;47991;42.974;12.082;2023-06-10T05:42:33;97421.05;;;18.72;93.57
62038;BME280;47991;42.974;12.082;2023-06-10T05:45:01;97421.61;;;18.85;93.34
62038;BME280;47991;42.974;12.082;2023-06-10T05:47:28;97417.27;;;18.94;94.76
62038;BME280;47991;42.974;12.082;2023-06-10T05:49:55;97418.15;;;19.00;94.25
62038;BME280;47991;42.974;12.082;2023-06-10T05:52:22;97423.73;;;19.13;93.69
62038;BME280;47991;42.974;12.082;2023-06-10T05:54:50;97422.74;;;19.30;93.12
62038;BME280;47991;42.974;12.082;2023-06-10T05:57:17;97426.94;;;19.44;92.86
62038;BME280;47991;42.974;12.082;2023-06-10T05:59:44;97424.13;;;19.59;92.20
62038;BME280;47991;42.974;12.082;2023-06-10T06:02:11;97428.88;;;19.73;92.08
62038;BME280;47991;42.974;12.082;2023-06-10T06:04:38;97438.20;;;19.60;91.49
62038;BME280;47991;42.974;12.082;2023-06-10T06:07:05;97441.89;;;19.33;93.91
62038;BME280;47991;42.974;12.082;2023-06-10T06:09:32;97436.16;;;19.38;93.62
62038;BME280;47991;42.974;12.082;2023-06-10T06:11:59;97437.68;;;19.44;94.45
62038;BME280;47991;42.974;12.082;2023-06-10T06:14:26;97432.48;;;19.44;94.25
62038;BME280;47991;42.974;12.082;2023-06-10T06:16:52;97437.16;;;19.44;94.09
62038;BME280;47991;42.974;12.082;2023-06-10T06:19:19;97439.36;;;19.51;94.06
62038;BME280;47991;42.974;12.082;2023-06-10T06:21:46;97440.98;;;19.66;93.53
62038;BME280;47991;42.974;12.082;2023-06-10T06:24:15;97439.95;;;19.71;91.15
62038;BME280;47991;42.974;12.082;2023-06-10T06:26:42;97440.63;;;19.80;92.06
62038;BME280;47991;42.974;12.082;2023-06-10T06:29:09;97443.52;;;20.00;91.47
62038;BME280;47991;42.974;12.082;2023-06-10T06:31:35;97441.35;;;20.05;90.03
62038;BME280;47991;42.974;12.082;2023-06-10T06:34:03;97448.84;;;20.10;89.26
62038;BME280;47991;42.974;12.082;2023-06-10T06:36:30;97448.14;;;20.18;88.04
62038;BME280;47991;42.974;12.082;2023-06-10T06:38:56;97452.62;;;20.30;88.64
62038;BME280;47991;42.974;12.082;2023-06-10T06:41:28;97443.67;;;20.64;87.23
62038;BME280;47991;42.974;12.082;2023-06-10T06:43:55;97445.46;;;20.96;86.15
62038;BME280;47991;42.974;12.082;2023-06-10T06:46:22;97440.17;;;21.11;83.77
62038;BME280;47991;42.974;12.082;2023-06-10T06:48:49;97438.50;;;21.38;83.67
62038;BME280;47991;42.974;12.082;2023-06-10T06:51:16;97438.77;;;21.37;84.54
62038;BME280;47991;42.974;12.082;2023-06-10T06:53:43;97437.27;;;21.42;83.95
62038;BME280;47991;42.974;12.082;2023-06-10T06:56:12;97431.70;;;21.44;83.73
62038;BME280;47991;42.974;12.082;2023-06-10T06:58:41;97432.91;;;21.38;81.06
62038;BME280;47991;42.974;12.082;2023-06-10T07:01:08;97431.21;;;21.32;80.48
62038;BME280;47991;42.974;12.082;2023-06-10T07:03:35;97429.36;;;21.25;82.19
62038;BME280;47991;42.974;12.082;2023-06-10T07:06:02;97426.92;;;21.45;82.82
62038;BME280;47991;42.974;12.082;2023-06-10T07:08:29;97423.86;;;21.91;81.91
62038;BME280;47991;42.974;12.082;2023-06-10T07:10:55;97420.54;;;22.28;81.01
62038;BME280;47991;42.974;12.082;2023-06-10T07:13:22;97417.45;;;22.68;79.47
62038;BME280;47991;42.974;12.082;2023-06-10T07:15:49;97417.44;;;23.07;77.30
62038;BME280;47991;42.974;12.082;2023-06-10T07:18:16;97424.92;;;23.28;75.32
62038;BME280;47991;42.974;12.082;2023-06-10T07:20:44;97430.02;;;23.33;75.03
62038;BME280;47991;42.974;12.082;2023-06-10T07:23:11;97431.13;;;23.31;75.51
62038;BME280;47991;42.974;12.082;2023-06-10T07:25:39;97432.17;;;23.48;75.06
62038;BME280;47991;42.974;12.082;2023-06-10T07:28:07;97434.95;;;23.68;72.20
62038;BME280;47991;42.974;12.082;2023-06-10T07:30:34;97429.67;;;23.82;71.68
62038;BME280;47991;42.974;12.082;2023-06-10T07:33:01;97429.73;;;23.85;71.81
62038;BME280;47991;42.974;12.082;2023-06-10T07:35:28;97429.04;;;23.85;70.54
62038;BME280;47991;42.974;12.082;2023-06-10T07:37:55;97425.73;;;24.02;69.60
62038;BME280;47991;42.974;12.082;2023-06-10T07:40:23;97423.91;;;24.00;67.63
62038;BME280;47991;42.974;12.082;2023-06-10T07:42:50;97417.92;;;24.17;67.85
62038;BME280;47991;42.974;12.082;2023-06-10T07:45:17;97426.50;;;24.08;65.48
62038;BME280;47991;42.974;12.082;2023-06-10T07:47:44;97425.52;;;24.21;65.24
62038;BME280;47991;42.974;12.082;2023-06-10T07:50:11;97423.21;;;24.44;65.90
62038;BME280;47991;42.974;12.082;2023-06-10T07:52:38;97422.08;;;24.47;64.20
62038;BME280;47991;42.974;12.082;2023-06-10T07:55:06;97420.60;;;24.35;62.45
62038;BME280;47991;42.974;12.082;2023-06-10T07:57:33;97418.83;;;24.53;64.02
62038;BME280;47991;42.974;12.082;2023-06-10T08:00:03;97424.98;;;24.91;63.62
62038;BME280;47991;42.974;12.082;2023-06-10T08:02:31;97423.40;;;25.06;61.46
62038;BME280;47991;42.974;12.082;2023-06-10T08:04:58;97423.83;;;24.85;58.97
62038;BME280;47991;42.974;12.082;2023-06-10T08:07:25;97423.20;;;24.81;59.09
62038;BME280;47991;42.974;12.082;2023-06-10T08:09:52;97427.98;;;24.99;62.17
62038;BME280;47991;42.974;12.082;2023-06-10T08:12:19;97437.89;;;25.49;61.49
62038;BME280;47991;42.974;12.082;2023-06-10T08:14:47;97430.64;;;25.70;58.53
62038;BME280;47991;42.974;12.082;2023-06-10T08:17:14;97434.30;;;25.84;59.25
62038;BME280;47991;42.974;12.082;2023-06-10T08:19:41;97434.28;;;26.11;59.32
62038;BME280;47991;42.974;12.082;2023-06-10T08:22:08;97436.27;;;26.30;59.25
62038;BME280;47991;42.974;12.082;2023-06-10T08:24:34;97439.29;;;26.10;57.77
62038;BME280;47991;42.974;12.082;2023-06-10T08:27:02;97438.66;;;25.86;58.87
62038;BME280;47991;42.974;12.082;2023-06-10T08:29:29;97438.14;;;25.67;57.17
62038;BME280;47991;42.974;12.082;2023-06-10T08:32:00;97438.10;;;25.54;58.58
62038;BME280;47991;42.974;12.082;2023-06-10T08:34:27;97437.92;;;25.60;58.80
62038;BME280;47991;42.974;12.082;2023-06-10T08:36:54;97434.40;;;25.72;58.92
62038;BME280;47991;42.974;12.082;2023-06-10T08:39:22;97435.42;;;25.98;58.38
62038;BME280;47991;42.974;12.082;2023-06-10T08:42:24;97429.98;;;25.98;57.70
62038;BME280;47991;42.974;12.082;2023-06-10T08:44:54;97433.13;;;26.03;58.13
62038;BME280;47991;42.974;12.082;2023-06-10T08:47:29;97433.58;;;26.30;56.50
62038;BME280;47991;42.974;12.082;2023-06-10T08:50:02;97428.30;;;26.47;55.92
62038;BME280;47991;42.974;12.082;2023-06-10T08:52:37;97424.98;;;26.67;53.80
62038;BME280;47991;42.974;12.082;2023-06-10T08:55:19;97426.34;;;26.42;51.76
62038;BME280;47991;42.974;12.082;2023-06-10T08:57:49;97430.90;;;26.37;54.75
62038;BME280;47991;42.974;12.082;2023-06-10T09:00:16;97425.38;;;26.30;54.36
62038;BME280;47991;42.974;12.082;2023-06-10T09:02:44;97423.27;;;26.29;54.36
62038;BME280;47991;42.974;12.082;2023-06-10T09:05:12;97418.30;;;26.27;51.73
62038;BME280;47991;42.974;12.082;2023-06-10T09:07:40;97422.49;;;26.11;54.38
62038;BME280;47991;42.974;12.082;2023-06-10T09:10:07;97420.65;;;26.30;54.03
62038;BME280;47991;42.974;12.082;2023-06-10T09:12:35;97422.84;;;26.45;53.85
62038;BME280;47991;42.974;12.082;2023-06-10T09:15:02;97421.44;;;26.57;50.57
62038;BME280;47991;42.974;12.082;2023-06-10T09:17:29;97424.36;;;26.72;52.11
62038;BME280;47991;42.974;12.082;2023-06-10T09:19:56;97426.50;;;26.69;52.35
62038;BME280;47991;42.974;12.082;2023-06-10T09:22:23;97432.98;;;26.28;50.69
62038;BME280;47991;42.974;12.082;2023-06-10T09:25:03;97433.41;;;26.09;53.88
62038;BME280;47991;42.974;12.082;2023-06-10T09:27:32;97432.17;;;26.09;54.12
62038;BME280;47991;42.974;12.082;2023-06-10T09:29:59;97426.01;;;26.51;53.75
62038;BME280;47991;42.974;12.082;2023-06-10T09:32:26;97416.91;;;26.76;52.55
62038;BME280;47991;42.974;12.082;2023-06-10T09:34:53;97417.80;;;26.69;52.11
62038;BME280;47991;42.974;12.082;2023-06-10T09:37:21;97417.76;;;26.53;53.40
62038;BME280;47991;42.974;12.082;2023-06-10T09:40:05;97417.52;;;26.55;52.54
62038;BME280;47991;42.974;12.082;2023-06-10T09:42:35;97417.67;;;26.51;53.12
62038;BME280;47991;42.974;12.082;2023-06-10T09:45:03;97414.89;;;26.39;51.81
62038;BME280;47991;42.974;12.082;2023-06-10T09:47:30;97416.80;;;26.29;52.67
62038;BME280;47991;42.974;12.082;2023-06-10T09:49:57;97412.51;;;26.54;49.21
62038;BME280;47991;42.974;12.082;2023-06-10T09:52:26;97411.16;;;26.57;49.54
62038;BME280;47991;42.974;12.082;2023-06-10T09:54:58;97405.56;;;26.53;49.10
62038;BME280;47991;42.974;12.082;2023-06-10T09:57:25;97402.63;;;26.53;50.19
62038;BME280;47991;42.974;12.082;2023-06-10T09:59:53;97405.13;;;26.81;50.34
62038;BME280;47991;42.974;12.082;2023-06-10T10:02:20;97402.16;;;27.09;50.25
62038;BME280;47991;42.974;12.082;2023-06-10T10:04:47;97401.46;;;27.17;50.16
62038;BME280;47991;42.974;12.082;2023-06-10T10:07:14;97397.39;;;27.29;48.63
62038;BME280;47991;42.974;12.082;2023-06-10T10:09:42;97394.80;;;27.44;49.53
62038;BME280;47991;42.974;12.082;2023-06-10T10:12:11;97394.63;;;27.65;47.11
62038;BME280;47991;42.974;12.082;2023-06-10T10:14:39;97395.50;;;27.62;47.51
62038;BME280;47991;42.974;12.082;2023-06-10T10:17:10;97390.42;;;27.75;47.38
62038;BME280;47991;42.974;12.082;2023-06-10T10:19:47;97387.87;;;27.82;46.93
62038;BME280;47991;42.974;12.082;2023-06-10T10:22:19;97386.36;;;27.62;47.50
62038;BME280;47991;42.974;12.082;2023-06-10T10:24:53;97384.41;;;27.88;47.91
62038;BME280;47991;42.974;12.082;2023-06-10T10:27:33;97382.91;;;28.26;48.61
62038;BME280;47991;42.974;12.082;2023-06-10T10:30:03;97385.11;;;28.24;46.33
62038;BME280;47991;42.974;12.082;2023-06-10T10:32:38;97380.80;;;27.87;46.65
62038;BME280;47991;42.974;12.082;2023-06-10T10:35:16;97379.88;;;27.96;46.91
62038;BME280;47991;42.974;12.082;2023-06-10T10:37:45;97380.70;;;28.20;46.52
62038;BME280;47991;42.974;12.082;2023-06-10T10:40:13;97374.23;;;28.19;44.47
62038;BME280;47991;42.974;12.082;2023-06-10T10:42:41;97377.20;;;27.66;44.65
62038;BME280;47991;42.974;12.082;2023-06-10T10:45:09;97372.89;;;27.32;45.83
62038;BME280;47991;42.974;12.082;2023-06-10T10:47:37;97371.36;;;27.30;47.63
62038;BME280;47991;42.974;12.082;2023-06-10T10:50:16;97374.61;;;27.55;48.33
62038;BME280;47991;42.974;12.082;2023-06-10T10:53:03;97370.02;;;27.50;48.66
62038;BME280;47991;42.974;12.082;2023-06-10T10:55:31;97369.13;;;27.44;48.25
62038;BME280;47991;42.974;12.082;2023-06-10T10:58:05;97367.23;;;27.31;48.84
62038;BME280;47991;42.974;12.082;2023-06-10T11:00:41;97362.88;;;26.81;47.88
62038;BME280;47991;42.974;12.082;2023-06-10T11:03:15;97358.45;;;26.77;49.15
62038;BME280;47991;42.974;12.082;2023-06-10T11:05:48;97355.00;;;26.96;49.97
62038;BME280;47991;42.974;12.082;2023-06-10T11:10:55;97349.32;;;27.30;49.24
62038;BME280;47991;42.974;12.082;2023-06-10T11:13:22;97345.05;;;27.53;49.52
62038;BME280;47991;42.974;12.082;2023-06-10T11:15:50;97345.33;;;27.91;47.89
62038;BME280;47991;42.974;12.082;2023-06-10T11:36:20;97331.69;;;27.01;50.04
62038;BME280;47991;42.974;12.082;2023-06-10T11:38:48;97332.46;;;27.18;50.49
62038;BME280;47991;42.974;12.082;2023-06-10T11:41:17;97330.89;;;27.43;49.33
62038;BME280;47991;42.974;12.082;2023-06-10T11:43:45;97326.08;;;27.71;48.27
62038;BME280;47991;42.974;12.082;2023-06-10T11:46:13;97318.50;;;27.80;48.07
62038;BME280;47991;42.974;12.082;2023-06-10T11:48:51;97317.17;;;27.60;49.33
62038;BME280;47991;42.974;12.082;2023-06-10T11:51:19;97318.30;;;27.07;49.76
62038;BME280;47991;42.974;12.082;2023-06-10T11:53:49;97313.30;;;27.08;49.44
62038;BME280;47991;42.974;12.082;2023-06-10T11:56:24;97313.02;;;27.34;48.64
62038;BME280;47991;42.974;12.082;2023-06-10T11:58:55;97309.77;;;27.34;48.87
62038;BME280;47991;42.974;12.082;2023-06-10T12:01:23;97306.98;;;27.31;47.70
62038;BME280;47991;42.974;12.082;2023-06-10T12:04:04;97309.59;;;27.23;47.74
62038;BME280;47991;42.974;12.082;2023-06-10T12:06:48;97304.98;;;27.54;46.77
62038;BME280;47991;42.974;12.082;2023-06-10T12:09:22;97304.66;;;27.52;47.65
62038;BME280;47991;42.974;12.082;2023-06-10T12:12:01;97299.71;;;27.61;46.34
62038;BME280;47991;42.974;12.082;2023-06-10T12:17:23;97298.32;;;27.60;45.56
62038;BME280;47991;42.974;12.082;2023-06-10T12:19:51;97291.84;;;27.67;44.84
62038;BME280;47991;42.974;12.082;2023-06-10T12:22:18;97282.61;;;27.82;45.39
62038;BME280;47991;42.974;12.082;2023-06-10T12:24:58;97279.50;;;28.00;46.25
62038;BME280;47991;42.974;12.082;2023-06-10T12:27:30;97275.90;;;28.17;45.97
62038;BME280;47991;42.974;12.082;2023-06-10T12:30:00;97273.77;;;27.93;45.54
62038;BME280;47991;42.974;12.082;2023-06-10T12:32:42;97269.92;;;27.79;46.91
62038;BME280;47991;42.974;12.082;2023-06-10T12:35:11;97268.99;;;27.85;46.80
62038;BME280;47991;42.974;12.082;2023-06-10T12:37:39;97264.73;;;28.05;45.14
62038;BME280;47991;42.974;12.082;2023-06-10T12:40:07;97265.36;;;28.26;46.86
62038;BME280;47991;42.974;12.082;2023-06-10T12:42:36;97261.46;;;28.58;46.15
62038;BME280;47991;42.974;12.082;2023-06-10T12:45:04;97260.42;;;28.53;45.71
62038;BME280;47991;42.974;12.082;2023-06-10T12:47:35;97264.51;;;28.50;46.40
62038;BME280;47991;42.974;12.082;2023-06-10T12:50:05;97266.21;;;28.48;46.43
62038;BME280;47991;42.974;12.082;2023-06-10T12:52:32;97262.70;;;28.42;46.13
62038;BME280;47991;42.974;12.082;2023-06-10T12:54:59;97260.30;;;28.10;45.98
62038;BME280;47991;42.974;12.082;2023-06-10T12:57:27;97265.78;;;27.71;48.19
62038;BME280;47991;42.974;12.082;2023-06-10T12:59:54;97270.34;;;27.27;49.10
62038;BME280;47991;42.974;12.082;2023-06-10T13:02:27;97274.66;;;26.82;49.64
62038;BME280;47991;42.974;12.082;2023-06-10T13:04:54;97275.71;;;26.32;50.93
62038;BME280;47991;42.974;12.082;2023-06-10T13:07:22;97274.23;;;25.77;52.42
62038;BME280;47991;42.974;12.082;2023-06-10T13:09:49;97272.04;;;25.43;53.03
62038;BME280;47991;42.974;12.082;2023-06-10T13:12:16;97283.50;;;25.09;55.07
62038;BME280;47991;42.974;12.082;2023-06-10T13:14:44;97293.09;;;24.70;55.70
62038;BME280;47991;42.974;12.082;2023-06-10T13:17:11;97304.30;;;24.37;57.68
62038;BME280;47991;42.974;12.082;2023-06-10T13:19:38;97324.80;;;23.92;60.70
62038;BME280;47991;42.974;12.082;2023-06-10T13:22:05;97332.52;;;23.41;62.60
62038;BME280;47991;42.974;12.082;2023-06-10T13:24:32;97335.05;;;22.97;62.66